Terminal Aerodrome Forecast
Issued by NWS

Home | Current Version | Previous Version | Text Only | Print | Product List | Glossary On
Versions: 1 2 3 4 5 6 7 8 9 10 11 12
000
FTUS41 KBGM 221133
TAFITH
TAF
KITH 221133Z 2212/2312 16009KT P6SM FEW250
     FM221800 18010G19KT P6SM BKN250
     FM231000 18013G24KT P6SM BKN150=

USA.gov is the U.S. government's official web portal to all federal, state and local government web resources and services.